sensor_id;sensor_type;location;lat;lon;timestamp;P1;durP1;ratioP1;P2;durP2;ratioP2
49310;SDS011;35177;45.900;5.946;2023-05-23T00:01:19;6.72;;;4.45;;
49310;SDS011;35177;45.900;5.946;2023-05-23T00:03:45;6.63;;;4.90;;
49310;SDS011;35177;45.900;5.946;2023-05-23T00:06:11;5.57;;;3.70;;
49310;SDS011;35177;45.900;5.946;2023-05-23T00:08:36;4.97;;;3.92;;
49310;SDS011;35177;45.900;5.946;2023-05-23T00:11:02;5.57;;;4.70;;
49310;SDS011;35177;45.900;5.946;2023-05-23T00:13:27;10.50;;;5.28;;
49310;SDS011;35177;45.900;5.946;2023-05-23T00:15:53;5.82;;;3.97;;
49310;SDS011;35177;45.900;5.946;2023-05-23T00:18:18;3.80;;;3.38;;
49310;SDS011;35177;45.900;5.946;2023-05-23T00:20:44;7.40;;;3.50;;
49310;SDS011;35177;45.900;5.946;2023-05-23T00:23:11;7.22;;;5.22;;
49310;SDS011;35177;45.900;5.946;2023-05-23T00:25:43;9.48;;;4.65;;
49310;SDS011;35177;45.900;5.946;2023-05-23T00:28:12;9.23;;;6.60;;
49310;SDS011;35177;45.900;5.946;2023-05-23T00:30:38;10.88;;;7.60;;
49310;SDS011;35177;45.900;5.946;2023-05-23T00:33:04;11.20;;;7.60;;
49310;SDS011;35177;45.900;5.946;2023-05-23T00:35:30;9.75;;;7.55;;
49310;SDS011;35177;45.900;5.946;2023-05-23T00:37:55;16.25;;;8.52;;
49310;SDS011;35177;45.900;5.946;2023-05-23T00:40:21;11.60;;;7.60;;
49310;SDS011;35177;45.900;5.946;2023-05-23T00:42:47;9.43;;;7.60;;
49310;SDS011;35177;45.900;5.946;2023-05-23T00:45:13;10.18;;;6.70;;
49310;SDS011;35177;45.900;5.946;2023-05-23T00:47:40;10.32;;;6.63;;
49310;SDS011;35177;45.900;5.946;2023-05-23T00:50:07;8.32;;;6.43;;
49310;SDS011;35177;45.900;5.946;2023-05-23T00:52:33;6.45;;;5.40;;
49310;SDS011;35177;45.900;5.946;2023-05-23T00:55:00;8.55;;;5.63;;
49310;SDS011;35177;45.900;5.946;2023-05-23T00:57:26;9.20;;;6.05;;
49310;SDS011;35177;45.900;5.946;2023-05-23T00:59:52;9.65;;;6.88;;
49310;SDS011;35177;45.900;5.946;2023-05-23T01:02:17;7.97;;;6.28;;
49310;SDS011;35177;45.900;5.946;2023-05-23T01:04:45;8.30;;;6.53;;
49310;SDS011;35177;45.900;5.946;2023-05-23T01:07:12;9.30;;;6.38;;
49310;SDS011;35177;45.900;5.946;2023-05-23T01:09:38;8.45;;;6.10;;
49310;SDS011;35177;45.900;5.946;2023-05-23T01:14:43;7.60;;;6.05;;
49310;SDS011;35177;45.900;5.946;2023-05-23T01:17:24;8.95;;;5.20;;
49310;SDS011;35177;45.900;5.946;2023-05-23T01:19:57;6.70;;;4.88;;
49310;SDS011;35177;45.900;5.946;2023-05-23T01:28:35;8.35;;;4.78;;
49310;SDS011;35177;45.900;5.946;2023-05-23T01:31:04;5.53;;;4.30;;
49310;SDS011;35177;45.900;5.946;2023-05-23T01:33:32;6.80;;;4.43;;
49310;SDS011;35177;45.900;5.946;2023-05-23T01:36:00;7.95;;;4.30;;
49310;SDS011;35177;45.900;5.946;2023-05-23T01:38:29;8.93;;;5.10;;
49310;SDS011;35177;45.900;5.946;2023-05-23T01:40:55;6.65;;;4.72;;
49310;SDS011;35177;45.900;5.946;2023-05-23T01:43:21;8.48;;;4.65;;
49310;SDS011;35177;45.900;5.946;2023-05-23T01:45:47;5.50;;;4.25;;
49310;SDS011;35177;45.900;5.946;2023-05-23T01:48:14;7.40;;;4.82;;
49310;SDS011;35177;45.900;5.946;2023-05-23T01:50:42;6.95;;;3.90;;
49310;SDS011;35177;45.900;5.946;2023-05-23T01:53:12;6.00;;;4.13;;
49310;SDS011;35177;45.900;5.946;2023-05-23T01:55:40;5.93;;;3.72;;
49310;SDS011;35177;45.900;5.946;2023-05-23T01:58:06;6.63;;;4.03;;
49310;SDS011;35177;45.900;5.946;2023-05-23T02:00:32;6.20;;;3.45;;
49310;SDS011;35177;45.900;5.946;2023-05-23T02:02:58;5.70;;;4.78;;
49310;SDS011;35177;45.900;5.946;2023-05-23T02:05:23;5.93;;;4.18;;
49310;SDS011;35177;45.900;5.946;2023-05-23T02:07:49;8.93;;;5.63;;
49310;SDS011;35177;45.900;5.946;2023-05-23T02:10:15;7.82;;;6.60;;
49310;SDS011;35177;45.900;5.946;2023-05-23T02:12:41;11.05;;;7.40;;
49310;SDS011;35177;45.900;5.946;2023-05-23T02:15:06;13.23;;;7.07;;
49310;SDS011;35177;45.900;5.946;2023-05-23T02:17:32;9.38;;;6.82;;
49310;SDS011;35177;45.900;5.946;2023-05-23T02:19:58;10.10;;;6.88;;
49310;SDS011;35177;45.900;5.946;2023-05-23T02:22:24;6.03;;;5.43;;
49310;SDS011;35177;45.900;5.946;2023-05-23T02:24:50;8.25;;;5.05;;
49310;SDS011;35177;45.900;5.946;2023-05-23T02:27:16;6.57;;;5.68;;
49310;SDS011;35177;45.900;5.946;2023-05-23T02:29:41;10.63;;;5.65;;
49310;SDS011;35177;45.900;5.946;2023-05-23T02:32:07;8.18;;;5.95;;
49310;SDS011;35177;45.900;5.946;2023-05-23T02:34:32;9.85;;;6.78;;
49310;SDS011;35177;45.900;5.946;2023-05-23T02:36:58;11.05;;;6.53;;
49310;SDS011;35177;45.900;5.946;2023-05-23T02:39:23;11.30;;;6.57;;
49310;SDS011;35177;45.900;5.946;2023-05-23T02:41:49;8.77;;;6.68;;
49310;SDS011;35177;45.900;5.946;2023-05-23T02:44:15;8.48;;;6.22;;
49310;SDS011;35177;45.900;5.946;2023-05-23T02:46:43;8.68;;;6.30;;
49310;SDS011;35177;45.900;5.946;2023-05-23T02:49:09;7.47;;;5.82;;
49310;SDS011;35177;45.900;5.946;2023-05-23T02:51:34;6.72;;;5.38;;
49310;SDS011;35177;45.900;5.946;2023-05-23T02:54:00;8.38;;;5.93;;
49310;SDS011;35177;45.900;5.946;2023-05-23T02:56:25;5.70;;;4.45;;
49310;SDS011;35177;45.900;5.946;2023-05-23T02:58:51;10.45;;;5.50;;
49310;SDS011;35177;45.900;5.946;2023-05-23T03:01:17;7.18;;;5.50;;
49310;SDS011;35177;45.900;5.946;2023-05-23T03:03:43;9.07;;;6.38;;
49310;SDS011;35177;45.900;5.946;2023-05-23T03:06:09;13.75;;;6.40;;
49310;SDS011;35177;45.900;5.946;2023-05-23T03:08:38;10.02;;;7.07;;
49310;SDS011;35177;45.900;5.946;2023-05-23T03:11:04;8.20;;;4.72;;
49310;SDS011;35177;45.900;5.946;2023-05-23T03:13:30;6.40;;;5.03;;
49310;SDS011;35177;45.900;5.946;2023-05-23T03:15:55;7.75;;;4.93;;
49310;SDS011;35177;45.900;5.946;2023-05-23T03:18:21;11.63;;;6.28;;
49310;SDS011;35177;45.900;5.946;2023-05-23T03:20:46;7.43;;;5.93;;
49310;SDS011;35177;45.900;5.946;2023-05-23T03:23:12;7.47;;;5.30;;
49310;SDS011;35177;45.900;5.946;2023-05-23T03:25:37;6.15;;;5.00;;
49310;SDS011;35177;45.900;5.946;2023-05-23T03:28:03;6.90;;;5.60;;
49310;SDS011;35177;45.900;5.946;2023-05-23T03:30:28;7.93;;;5.65;;
49310;SDS011;35177;45.900;5.946;2023-05-23T03:32:53;6.43;;;4.93;;
49310;SDS011;35177;45.900;5.946;2023-05-23T03:35:19;6.90;;;5.75;;
49310;SDS011;35177;45.900;5.946;2023-05-23T03:37:45;7.55;;;5.13;;
49310;SDS011;35177;45.900;5.946;2023-05-23T03:40:10;7.50;;;5.38;;
49310;SDS011;35177;45.900;5.946;2023-05-23T03:42:37;10.57;;;7.00;;
49310;SDS011;35177;45.900;5.946;2023-05-23T03:45:03;8.80;;;6.13;;
49310;SDS011;35177;45.900;5.946;2023-05-23T03:47:29;6.65;;;5.30;;
49310;SDS011;35177;45.900;5.946;2023-05-23T03:49:55;9.43;;;4.97;;
49310;SDS011;35177;45.900;5.946;2023-05-23T03:52:20;9.98;;;6.45;;
49310;SDS011;35177;45.900;5.946;2023-05-23T03:54:46;6.35;;;4.28;;
49310;SDS011;35177;45.900;5.946;2023-05-23T03:57:11;9.60;;;4.80;;
49310;SDS011;35177;45.900;5.946;2023-05-23T03:59:37;9.07;;;5.28;;
49310;SDS011;35177;45.900;5.946;2023-05-23T04:02:02;9.80;;;5.20;;
49310;SDS011;35177;45.900;5.946;2023-05-23T04:04:28;8.30;;;6.70;;
49310;SDS011;35177;45.900;5.946;2023-05-23T04:06:54;7.18;;;5.28;;
49310;SDS011;35177;45.900;5.946;2023-05-23T04:09:20;12.38;;;5.97;;
49310;SDS011;35177;45.900;5.946;2023-05-23T04:11:45;7.10;;;4.30;;
49310;SDS011;35177;45.900;5.946;2023-05-23T04:14:11;5.85;;;5.05;;
49310;SDS011;35177;45.900;5.946;2023-05-23T04:16:37;10.00;;;5.85;;
49310;SDS011;35177;45.900;5.946;2023-05-23T04:19:05;8.25;;;6.38;;
49310;SDS011;35177;45.900;5.946;2023-05-23T04:21:31;9.30;;;6.85;;
49310;SDS011;35177;45.900;5.946;2023-05-23T04:23:57;10.35;;;6.82;;
49310;SDS011;35177;45.900;5.946;2023-05-23T04:26:23;11.15;;;7.25;;
49310;SDS011;35177;45.900;5.946;2023-05-23T04:28:49;9.80;;;6.05;;
49310;SDS011;35177;45.900;5.946;2023-05-23T04:31:18;9.20;;;7.03;;
49310;SDS011;35177;45.900;5.946;2023-05-23T04:33:47;12.43;;;6.95;;
49310;SDS011;35177;45.900;5.946;2023-05-23T04:36:13;9.35;;;7.18;;
49310;SDS011;35177;45.900;5.946;2023-05-23T04:38:38;8.60;;;6.05;;
49310;SDS011;35177;45.900;5.946;2023-05-23T04:41:05;12.05;;;8.05;;
49310;SDS011;35177;45.900;5.946;2023-05-23T04:43:31;13.55;;;8.30;;
49310;SDS011;35177;45.900;5.946;2023-05-23T04:45:58;11.52;;;7.80;;
49310;SDS011;35177;45.900;5.946;2023-05-23T04:48:24;11.48;;;8.40;;
49310;SDS011;35177;45.900;5.946;2023-05-23T04:50:52;12.00;;;7.70;;
49310;SDS011;35177;45.900;5.946;2023-05-23T04:53:20;12.10;;;8.38;;
49310;SDS011;35177;45.900;5.946;2023-05-23T04:55:46;11.88;;;7.97;;
49310;SDS011;35177;45.900;5.946;2023-05-23T04:58:12;10.98;;;7.53;;
49310;SDS011;35177;45.900;5.946;2023-05-23T05:00:37;11.90;;;7.90;;
49310;SDS011;35177;45.900;5.946;2023-05-23T05:03:03;12.18;;;7.57;;
49310;SDS011;35177;45.900;5.946;2023-05-23T05:05:29;10.10;;;7.18;;
49310;SDS011;35177;45.900;5.946;2023-05-23T05:07:54;9.55;;;7.18;;
49310;SDS011;35177;45.900;5.946;2023-05-23T05:10:20;11.60;;;7.32;;
49310;SDS011;35177;45.900;5.946;2023-05-23T05:12:45;11.82;;;7.32;;
49310;SDS011;35177;45.900;5.946;2023-05-23T05:15:13;8.07;;;6.63;;
49310;SDS011;35177;45.900;5.946;2023-05-23T05:17:42;10.00;;;8.13;;
49310;SDS011;35177;45.900;5.946;2023-05-23T05:20:08;16.58;;;7.43;;
49310;SDS011;35177;45.900;5.946;2023-05-23T05:22:37;11.68;;;7.82;;
49310;SDS011;35177;45.900;5.946;2023-05-23T05:25:07;9.05;;;7.50;;
49310;SDS011;35177;45.900;5.946;2023-05-23T05:27:33;14.30;;;7.55;;
49310;SDS011;35177;45.900;5.946;2023-05-23T05:30:05;10.07;;;7.05;;
49310;SDS011;35177;45.900;5.946;2023-05-23T05:32:31;11.68;;;7.57;;
49310;SDS011;35177;45.900;5.946;2023-05-23T05:34:58;10.30;;;7.03;;
49310;SDS011;35177;45.900;5.946;2023-05-23T05:37:28;11.82;;;7.82;;
49310;SDS011;35177;45.900;5.946;2023-05-23T05:39:54;9.80;;;6.93;;
49310;SDS011;35177;45.900;5.946;2023-05-23T05:42:20;9.18;;;7.03;;
49310;SDS011;35177;45.900;5.946;2023-05-23T05:44:46;8.95;;;6.95;;
49310;SDS011;35177;45.900;5.946;2023-05-23T05:47:12;8.70;;;7.30;;
49310;SDS011;35177;45.900;5.946;2023-05-23T05:49:38;12.27;;;8.05;;
49310;SDS011;35177;45.900;5.946;2023-05-23T05:52:03;9.80;;;7.53;;
49310;SDS011;35177;45.900;5.946;2023-05-23T05:54:31;10.05;;;8.00;;
49310;SDS011;35177;45.900;5.946;2023-05-23T05:56:56;10.43;;;7.00;;
49310;SDS011;35177;45.900;5.946;2023-05-23T05:59:22;9.30;;;6.97;;
49310;SDS011;35177;45.900;5.946;2023-05-23T06:01:47;8.35;;;7.20;;
49310;SDS011;35177;45.900;5.946;2023-05-23T06:04:15;12.98;;;7.72;;
49310;SDS011;35177;45.900;5.946;2023-05-23T06:06:41;8.43;;;7.15;;
49310;SDS011;35177;45.900;5.946;2023-05-23T06:09:06;9.25;;;6.47;;
49310;SDS011;35177;45.900;5.946;2023-05-23T06:11:32;9.07;;;6.85;;
49310;SDS011;35177;45.900;5.946;2023-05-23T06:13:57;8.95;;;6.72;;
49310;SDS011;35177;45.900;5.946;2023-05-23T06:16:23;8.73;;;7.05;;
49310;SDS011;35177;45.900;5.946;2023-05-23T06:18:48;8.95;;;7.30;;
49310;SDS011;35177;45.900;5.946;2023-05-23T06:21:14;10.32;;;7.03;;
49310;SDS011;35177;45.900;5.946;2023-05-23T06:23:39;8.80;;;6.82;;
49310;SDS011;35177;45.900;5.946;2023-05-23T06:26:05;14.70;;;7.53;;
49310;SDS011;35177;45.900;5.946;2023-05-23T06:28:34;8.07;;;7.10;;
49310;SDS011;35177;45.900;5.946;2023-05-23T06:31:01;10.95;;;6.78;;
49310;SDS011;35177;45.900;5.946;2023-05-23T06:33:27;7.50;;;6.15;;
49310;SDS011;35177;45.900;5.946;2023-05-23T06:35:52;8.13;;;6.13;;
49310;SDS011;35177;45.900;5.946;2023-05-23T06:38:18;9.95;;;6.32;;
49310;SDS011;35177;45.900;5.946;2023-05-23T06:40:43;8.95;;;6.28;;
49310;SDS011;35177;45.900;5.946;2023-05-23T06:43:09;12.07;;;6.40;;
49310;SDS011;35177;45.900;5.946;2023-05-23T06:45:35;9.82;;;5.95;;
49310;SDS011;35177;45.900;5.946;2023-05-23T06:48:02;7.68;;;6.10;;
49310;SDS011;35177;45.900;5.946;2023-05-23T06:50:28;9.20;;;6.65;;
49310;SDS011;35177;45.900;5.946;2023-05-23T06:52:53;10.40;;;6.47;;
49310;SDS011;35177;45.900;5.946;2023-05-23T06:55:19;11.10;;;6.43;;
49310;SDS011;35177;45.900;5.946;2023-05-23T06:57:45;9.38;;;6.13;;
49310;SDS011;35177;45.900;5.946;2023-05-23T07:00:11;10.05;;;7.40;;
49310;SDS011;35177;45.900;5.946;2023-05-23T07:02:37;8.20;;;6.72;;
49310;SDS011;35177;45.900;5.946;2023-05-23T07:05:03;9.23;;;7.15;;
49310;SDS011;35177;45.900;5.946;2023-05-23T07:07:29;16.58;;;7.70;;
49310;SDS011;35177;45.900;5.946;2023-05-23T07:09:55;13.57;;;7.28;;
49310;SDS011;35177;45.900;5.946;2023-05-23T07:12:20;8.48;;;6.13;;
49310;SDS011;35177;45.900;5.946;2023-05-23T07:14:46;8.32;;;6.13;;
49310;SDS011;35177;45.900;5.946;2023-05-23T07:17:11;7.45;;;6.60;;
49310;SDS011;35177;45.900;5.946;2023-05-23T07:19:37;10.23;;;6.90;;
49310;SDS011;35177;45.900;5.946;2023-05-23T07:22:02;7.10;;;5.88;;
49310;SDS011;35177;45.900;5.946;2023-05-23T07:24:28;8.00;;;6.35;;
49310;SDS011;35177;45.900;5.946;2023-05-23T07:26:53;8.43;;;6.90;;
49310;SDS011;35177;45.900;5.946;2023-05-23T07:29:18;9.57;;;7.00;;
49310;SDS011;35177;45.900;5.946;2023-05-23T07:31:44;8.95;;;6.72;;
49310;SDS011;35177;45.900;5.946;2023-05-23T07:34:10;12.57;;;7.80;;
49310;SDS011;35177;45.900;5.946;2023-05-23T07:36:35;10.30;;;7.53;;
49310;SDS011;35177;45.900;5.946;2023-05-23T07:39:02;9.05;;;7.28;;
49310;SDS011;35177;45.900;5.946;2023-05-23T07:41:28;10.95;;;8.02;;
49310;SDS011;35177;45.900;5.946;2023-05-23T07:43:53;12.00;;;7.30;;
49310;SDS011;35177;45.900;5.946;2023-05-23T07:46:18;12.88;;;7.75;;
49310;SDS011;35177;45.900;5.946;2023-05-23T07:48:46;8.18;;;7.25;;
49310;SDS011;35177;45.900;5.946;2023-05-23T07:51:12;9.20;;;7.80;;
49310;SDS011;35177;45.900;5.946;2023-05-23T07:53:37;11.82;;;7.97;;
49310;SDS011;35177;45.900;5.946;2023-05-23T07:56:04;11.57;;;7.97;;
49310;SDS011;35177;45.900;5.946;2023-05-23T07:58:30;11.50;;;7.47;;
49310;SDS011;35177;45.900;5.946;2023-05-23T08:00:56;10.80;;;7.97;;
49310;SDS011;35177;45.900;5.946;2023-05-23T08:03:22;11.13;;;8.10;;
49310;SDS011;35177;45.900;5.946;2023-05-23T08:05:48;10.40;;;8.40;;
49310;SDS011;35177;45.900;5.946;2023-05-23T08:08:14;11.38;;;8.18;;
49310;SDS011;35177;45.900;5.946;2023-05-23T08:10:39;10.88;;;8.07;;
49310;SDS011;35177;45.900;5.946;2023-05-23T08:13:05;11.40;;;8.20;;
49310;SDS011;35177;45.900;5.946;2023-05-23T08:15:31;12.02;;;7.85;;
49310;SDS011;35177;45.900;5.946;2023-05-23T08:17:57;15.70;;;8.02;;
49310;SDS011;35177;45.900;5.946;2023-05-23T08:20:24;9.95;;;7.75;;
49310;SDS011;35177;45.900;5.946;2023-05-23T08:22:56;9.95;;;7.68;;
49310;SDS011;35177;45.900;5.946;2023-05-23T08:25:22;11.32;;;7.70;;
49310;SDS011;35177;45.900;5.946;2023-05-23T08:27:49;11.43;;;8.63;;
49310;SDS011;35177;45.900;5.946;2023-05-23T08:30:15;12.32;;;8.43;;
49310;SDS011;35177;45.900;5.946;2023-05-23T08:32:40;11.48;;;8.25;;
49310;SDS011;35177;45.900;5.946;2023-05-23T08:35:06;10.23;;;8.40;;
49310;SDS011;35177;45.900;5.946;2023-05-23T08:37:32;11.38;;;9.05;;
49310;SDS011;35177;45.900;5.946;2023-05-23T08:39:57;10.30;;;8.45;;
49310;SDS011;35177;45.900;5.946;2023-05-23T08:42:23;10.00;;;7.85;;
49310;SDS011;35177;45.900;5.946;2023-05-23T08:44:48;11.90;;;8.07;;
49310;SDS011;35177;45.900;5.946;2023-05-23T08:47:14;9.82;;;8.25;;
49310;SDS011;35177;45.900;5.946;2023-05-23T08:49:42;10.85;;;7.95;;
49310;SDS011;35177;45.900;5.946;2023-05-23T08:52:08;11.23;;;8.30;;
49310;SDS011;35177;45.900;5.946;2023-05-23T08:54:37;12.30;;;8.75;;
49310;SDS011;35177;45.900;5.946;2023-05-23T08:57:05;9.73;;;7.90;;
49310;SDS011;35177;45.900;5.946;2023-05-23T08:59:31;11.82;;;8.20;;
49310;SDS011;35177;45.900;5.946;2023-05-23T09:01:58;11.07;;;8.00;;
49310;SDS011;35177;45.900;5.946;2023-05-23T09:04:24;10.35;;;8.73;;
49310;SDS011;35177;45.900;5.946;2023-05-23T09:06:50;11.30;;;7.70;;
49310;SDS011;35177;45.900;5.946;2023-05-23T09:09:16;10.30;;;7.38;;
49310;SDS011;35177;45.900;5.946;2023-05-23T09:11:42;8.65;;;7.30;;
49310;SDS011;35177;45.900;5.946;2023-05-23T09:14:10;9.10;;;7.88;;
49310;SDS011;35177;45.900;5.946;2023-05-23T09:16:38;8.52;;;7.13;;
49310;SDS011;35177;45.900;5.946;2023-05-23T09:19:10;10.52;;;8.20;;
49310;SDS011;35177;45.900;5.946;2023-05-23T09:21:44;9.52;;;7.30;;
49310;SDS011;35177;45.900;5.946;2023-05-23T09:24:10;10.18;;;7.65;;
49310;SDS011;35177;45.900;5.946;2023-05-23T09:26:36;11.07;;;6.63;;
49310;SDS011;35177;45.900;5.946;2023-05-23T09:29:04;11.23;;;7.65;;
49310;SDS011;35177;45.900;5.946;2023-05-23T09:31:30;9.45;;;6.40;;
49310;SDS011;35177;45.900;5.946;2023-05-23T09:33:57;8.02;;;6.63;;
49310;SDS011;35177;45.900;5.946;2023-05-23T09:36:25;8.00;;;6.78;;
49310;SDS011;35177;45.900;5.946;2023-05-23T09:39:01;7.88;;;6.55;;
49310;SDS011;35177;45.900;5.946;2023-05-23T09:41:32;7.03;;;6.32;;
49310;SDS011;35177;45.900;5.946;2023-05-23T09:43:59;9.02;;;7.28;;
49310;SDS011;35177;45.900;5.946;2023-05-23T09:46:29;9.43;;;6.88;;
49310;SDS011;35177;45.900;5.946;2023-05-23T09:48:55;7.82;;;7.03;;
49310;SDS011;35177;45.900;5.946;2023-05-23T09:51:21;8.43;;;7.00;;
49310;SDS011;35177;45.900;5.946;2023-05-23T09:53:48;8.10;;;6.80;;
49310;SDS011;35177;45.900;5.946;2023-05-23T09:56:17;9.90;;;7.15;;
49310;SDS011;35177;45.900;5.946;2023-05-23T09:58:48;15.75;;;7.60;;
49310;SDS011;35177;45.900;5.946;2023-05-23T10:01:14;12.02;;;7.70;;
49310;SDS011;35177;45.900;5.946;2023-05-23T10:03:50;9.75;;;7.45;;
49310;SDS011;35177;45.900;5.946;2023-05-23T10:09:11;11.82;;;7.72;;
49310;SDS011;35177;45.900;5.946;2023-05-23T10:14:32;9.85;;;7.53;;
49310;SDS011;35177;45.900;5.946;2023-05-23T10:17:04;11.95;;;8.00;;
49310;SDS011;35177;45.900;5.946;2023-05-23T10:19:52;11.27;;;7.75;;
49310;SDS011;35177;45.900;5.946;2023-05-23T10:22:32;14.95;;;7.32;;
49310;SDS011;35177;45.900;5.946;2023-05-23T10:25:02;8.07;;;7.07;;
49310;SDS011;35177;45.900;5.946;2023-05-23T10:27:29;11.02;;;6.90;;
49310;SDS011;35177;45.900;5.946;2023-05-23T10:29:56;8.38;;;7.00;;
49310;SDS011;35177;45.900;5.946;2023-05-23T10:32:23;8.63;;;7.07;;
49310;SDS011;35177;45.900;5.946;2023-05-23T10:40:51;6.75;;;6.05;;
49310;SDS011;35177;45.900;5.946;2023-05-23T10:43:39;8.27;;;6.32;;
49310;SDS011;35177;45.900;5.946;2023-05-23T10:46:09;6.18;;;5.57;;
49310;SDS011;35177;45.900;5.946;2023-05-23T10:48:41;7.10;;;6.40;;
49310;SDS011;35177;45.900;5.946;2023-05-23T10:51:11;8.32;;;7.10;;
49310;SDS011;35177;45.900;5.946;2023-05-23T10:53:42;7.60;;;6.45;;
49310;SDS011;35177;45.900;5.946;2023-05-23T10:56:18;11.55;;;6.50;;
49310;SDS011;35177;45.900;5.946;2023-05-23T10:58:51;7.63;;;6.30;;
49310;SDS011;35177;45.900;5.946;2023-05-23T11:01:18;10.60;;;6.50;;
49310;SDS011;35177;45.900;5.946;2023-05-23T11:06:27;6.15;;;5.55;;
49310;SDS011;35177;45.900;5.946;2023-05-23T11:09:00;7.25;;;5.68;;
49310;SDS011;35177;45.900;5.946;2023-05-23T11:14:15;7.70;;;5.60;;
49310;SDS011;35177;45.900;5.946;2023-05-23T11:16:41;6.18;;;5.55;;
49310;SDS011;35177;45.900;5.946;2023-05-23T11:21:44;5.93;;;5.25;;
49310;SDS011;35177;45.900;5.946;2023-05-23T11:24:10;27.88;;;6.07;;
49310;SDS011;35177;45.900;5.946;2023-05-23T11:26:36;6.90;;;5.38;;
49310;SDS011;35177;45.900;5.946;2023-05-23T11:29:01;6.07;;;5.47;;
49310;SDS011;35177;45.900;5.946;2023-05-23T11:31:28;5.68;;;5.07;;
49310;SDS011;35177;45.900;5.946;2023-05-23T11:33:54;6.00;;;5.32;;
49310;SDS011;35177;45.900;5.946;2023-05-23T11:36:22;7.10;;;5.60;;
49310;SDS011;35177;45.900;5.946;2023-05-23T11:38:51;6.03;;;5.25;;
49310;SDS011;35177;45.900;5.946;2023-05-23T11:41:17;11.30;;;5.15;;
49310;SDS011;35177;45.900;5.946;2023-05-23T11:43:51;6.38;;;5.60;;
49310;SDS011;35177;45.900;5.946;2023-05-23T11:46:17;5.85;;;5.25;;
49310;SDS011;35177;45.900;5.946;2023-05-23T11:48:46;5.85;;;5.15;;
49310;SDS011;35177;45.900;5.946;2023-05-23T11:51:13;6.45;;;4.85;;
49310;SDS011;35177;45.900;5.946;2023-05-23T11:53:41;5.25;;;4.70;;
49310;SDS011;35177;45.900;5.946;2023-05-23T11:56:06;5.75;;;4.93;;
49310;SDS011;35177;45.900;5.946;2023-05-23T11:58:36;5.65;;;5.07;;
49310;SDS011;35177;45.900;5.946;2023-05-23T12:03:30;5.45;;;4.80;;
49310;SDS011;35177;45.900;5.946;2023-05-23T12:05:56;6.38;;;4.38;;
49310;SDS011;35177;45.900;5.946;2023-05-23T12:08:22;5.90;;;4.93;;
49310;SDS011;35177;45.900;5.946;2023-05-23T12:10:52;8.80;;;5.20;;
49310;SDS011;35177;45.900;5.946;2023-05-23T12:13:25;7.15;;;4.55;;
49310;SDS011;35177;45.900;5.946;2023-05-23T12:15:56;5.53;;;4.90;;
49310;SDS011;35177;45.900;5.946;2023-05-23T12:18:26;5.20;;;4.70;;
49310;SDS011;35177;45.900;5.946;2023-05-23T12:20:53;7.50;;;5.18;;
49310;SDS011;35177;45.900;5.946;2023-05-23T12:23:22;6.35;;;5.45;;
49310;SDS011;35177;45.900;5.946;2023-05-23T12:25:49;6.78;;;4.85;;
49310;SDS011;35177;45.900;5.946;2023-05-23T12:28:19;6.15;;;5.05;;
49310;SDS011;35177;45.900;5.946;2023-05-23T12:30:45;8.13;;;5.63;;
49310;SDS011;35177;45.900;5.946;2023-05-23T12:33:11;6.60;;;5.75;;
49310;SDS011;35177;45.900;5.946;2023-05-23T12:35:37;6.93;;;4.90;;
49310;SDS011;35177;45.900;5.946;2023-05-23T12:38:08;7.30;;;5.18;;
49310;SDS011;35177;45.900;5.946;2023-05-23T12:40:34;5.72;;;4.97;;
49310;SDS011;35177;45.900;5.946;2023-05-23T12:43:00;6.22;;;5.05;;
49310;SDS011;35177;45.900;5.946;2023-05-23T12:45:33;8.35;;;5.10;;
49310;SDS011;35177;45.900;5.946;2023-05-23T12:48:01;5.70;;;5.10;;
49310;SDS011;35177;45.900;5.946;2023-05-23T12:50:26;6.13;;;4.93;;
49310;SDS011;35177;45.900;5.946;2023-05-23T12:52:52;5.75;;;5.22;;
49310;SDS011;35177;45.900;5.946;2023-05-23T12:55:17;6.00;;;4.90;;
49310;SDS011;35177;45.900;5.946;2023-05-23T12:57:44;5.22;;;4.55;;
49310;SDS011;35177;45.900;5.946;2023-05-23T13:00:10;5.22;;;4.70;;
49310;SDS011;35177;45.900;5.946;2023-05-23T13:02:36;5.75;;;4.80;;
49310;SDS011;35177;45.900;5.946;2023-05-23T13:05:02;9.77;;;4.75;;
49310;SDS011;35177;45.900;5.946;2023-05-23T13:07:28;5.03;;;4.35;;
49310;SDS011;35177;45.900;5.946;2023-05-23T13:09:53;8.73;;;4.80;;
49310;SDS011;35177;45.900;5.946;2023-05-23T13:12:19;5.95;;;4.50;;
49310;SDS011;35177;45.900;5.946;2023-05-23T13:14:45;4.90;;;4.40;;
49310;SDS011;35177;45.900;5.946;2023-05-23T13:17:10;5.60;;;5.00;;
49310;SDS011;35177;45.900;5.946;2023-05-23T13:19:36;6.38;;;5.57;;
49310;SDS011;35177;45.900;5.946;2023-05-23T13:22:02;8.45;;;5.35;;
49310;SDS011;35177;45.900;5.946;2023-05-23T13:24:28;8.18;;;5.32;;
49310;SDS011;35177;45.900;5.946;2023-05-23T13:26:54;5.72;;;5.22;;
49310;SDS011;35177;45.900;5.946;2023-05-23T13:29:20;6.63;;;5.35;;
49310;SDS011;35177;45.900;5.946;2023-05-23T13:31:45;10.52;;;6.22;;
49310;SDS011;35177;45.900;5.946;2023-05-23T13:34:11;8.48;;;6.85;;
49310;SDS011;35177;45.900;5.946;2023-05-23T13:36:37;9.52;;;6.25;;
49310;SDS011;35177;45.900;5.946;2023-05-23T13:39:03;7.35;;;6.15;;
49310;SDS011;35177;45.900;5.946;2023-05-23T13:41:28;8.38;;;6.68;;
49310;SDS011;35177;45.900;5.946;2023-05-23T13:43:54;10.82;;;7.68;;
49310;SDS011;35177;45.900;5.946;2023-05-23T13:46:20;10.27;;;8.13;;
49310;SDS011;35177;45.900;5.946;2023-05-23T13:48:45;9.70;;;8.50;;
49310;SDS011;35177;45.900;5.946;2023-05-23T13:51:10;11.68;;;8.50;;
49310;SDS011;35177;45.900;5.946;2023-05-23T13:53:36;11.52;;;9.00;;
49310;SDS011;35177;45.900;5.946;2023-05-23T13:56:01;11.75;;;8.10;;
49310;SDS011;35177;45.900;5.946;2023-05-23T13:58:27;10.70;;;8.63;;
49310;SDS011;35177;45.900;5.946;2023-05-23T14:00:53;11.48;;;8.75;;
49310;SDS011;35177;45.900;5.946;2023-05-23T14:03:19;11.93;;;8.85;;
49310;SDS011;35177;45.900;5.946;2023-05-23T14:05:44;11.52;;;9.30;;
49310;SDS011;35177;45.900;5.946;2023-05-23T14:08:10;14.80;;;10.50;;
49310;SDS011;35177;45.900;5.946;2023-05-23T14:10:37;12.60;;;10.02;;
49310;SDS011;35177;45.900;5.946;2023-05-23T14:13:03;13.85;;;10.18;;
49310;SDS011;35177;45.900;5.946;2023-05-23T14:15:28;13.70;;;10.63;;
49310;SDS011;35177;45.900;5.946;2023-05-23T14:17:53;14.75;;;11.25;;
49310;SDS011;35177;45.900;5.946;2023-05-23T14:20:20;13.13;;;10.73;;
49310;SDS011;35177;45.900;5.946;2023-05-23T14:22:47;16.17;;;10.00;;
49310;SDS011;35177;45.900;5.946;2023-05-23T14:25:13;13.63;;;10.43;;
49310;SDS011;35177;45.900;5.946;2023-05-23T14:27:39;26.70;;;11.68;;
49310;SDS011;35177;45.900;5.946;2023-05-23T14:30:05;12.80;;;9.63;;
49310;SDS011;35177;45.900;5.946;2023-05-23T14:32:32;16.90;;;10.10;;
49310;SDS011;35177;45.900;5.946;2023-05-23T14:35:03;17.83;;;11.10;;
49310;SDS011;35177;45.900;5.946;2023-05-23T14:37:29;15.60;;;10.43;;
49310;SDS011;35177;45.900;5.946;2023-05-23T14:39:55;15.25;;;10.18;;
49310;SDS011;35177;45.900;5.946;2023-05-23T14:42:21;15.10;;;10.15;;
49310;SDS011;35177;45.900;5.946;2023-05-23T14:44:46;13.20;;;10.15;;
49310;SDS011;35177;45.900;5.946;2023-05-23T14:47:12;14.43;;;9.35;;
49310;SDS011;35177;45.900;5.946;2023-05-23T14:49:37;16.77;;;10.82;;
49310;SDS011;35177;45.900;5.946;2023-05-23T14:52:03;14.20;;;10.40;;
49310;SDS011;35177;45.900;5.946;2023-05-23T14:54:28;12.95;;;10.13;;
49310;SDS011;35177;45.900;5.946;2023-05-23T14:56:54;15.05;;;10.88;;
49310;SDS011;35177;45.900;5.946;2023-05-23T14:59:20;16.55;;;11.10;;
49310;SDS011;35177;45.900;5.946;2023-05-23T15:01:46;16.70;;;10.35;;
49310;SDS011;35177;45.900;5.946;2023-05-23T15:04:12;14.55;;;10.65;;
49310;SDS011;35177;45.900;5.946;2023-05-23T15:06:38;18.92;;;10.70;;
49310;SDS011;35177;45.900;5.946;2023-05-23T15:09:04;15.48;;;10.38;;